createdAt,value
2023-02-02T00:02:32.272Z,100672.25
2023-02-02T00:05:34.866Z,100668.63
2023-02-02T00:08:39.269Z,100670.19
2023-02-02T00:11:41.911Z,100676.28
2023-02-02T00:14:44.478Z,100687.00
2023-02-02T00:17:48.442Z,100682.63
2023-02-02T00:20:51.041Z,100679.84
2023-02-02T00:23:53.883Z,100694.81
2023-02-02T00:27:00.820Z,100677.25
2023-02-02T00:30:03.469Z,100672.06
2023-02-02T00:33:07.406Z,100666.56
2023-02-02T00:36:10.205Z,100687.63
2023-02-02T00:39:16.541Z,100704.22
2023-02-02T00:42:19.145Z,100711.22
2023-02-02T00:45:22.283Z,100707.94
2023-02-02T00:48:26.658Z,100707.22
2023-02-02T00:51:29.256Z,100710.38
2023-02-02T00:54:32.353Z,100721.44
2023-02-02T00:57:35.179Z,100732.03
2023-02-02T01:00:47.028Z,100721.63
2023-02-02T01:03:51.511Z,100732.25
2023-02-02T01:06:54.087Z,100745.22
2023-02-02T01:09:56.692Z,100751.34
2023-02-02T01:12:59.294Z,100744.97
2023-02-02T01:16:03.150Z,100745.44
2023-02-02T01:19:07.142Z,100741.25
2023-02-02T01:22:09.876Z,100757.97
2023-02-02T01:25:12.639Z,100765.81
2023-02-02T01:28:15.230Z,100770.22
2023-02-02T01:31:19.815Z,100768.28
2023-02-02T01:34:24.093Z,100778.03
2023-02-02T01:37:26.716Z,100772.69
2023-02-02T01:40:29.393Z,100783.44
2023-02-02T01:43:52.954Z,100787.00
2023-02-02T01:46:55.720Z,100787.13
2023-02-02T01:50:00.086Z,100792.31
2023-02-02T01:53:06.267Z,100804.41
2023-02-02T01:56:11.484Z,100801.84
2023-02-02T01:59:16.883Z,100812.56
2023-02-02T02:02:19.764Z,100803.72
2023-02-02T02:05:30.750Z,100821.28
2023-02-02T02:08:39.254Z,100825.63
2023-02-02T02:11:41.906Z,100824.16
2023-02-02T02:15:04.568Z,100845.75
2023-02-02T02:18:19.197Z,100848.25
2023-02-02T02:22:05.431Z,100840.44
2023-02-02T02:25:47.858Z,100865.81
2023-02-02T02:29:20.978Z,100867.63
2023-02-02T02:32:35.467Z,100860.75
2023-02-02T02:35:44.002Z,100874.78
2023-02-02T02:38:54.422Z,100874.81
2023-02-02T02:42:00.251Z,100875.50
2023-02-02T02:45:05.112Z,100883.59
2023-02-02T02:48:10.299Z,100874.94
2023-02-02T02:51:41.937Z,100879.47
2023-02-02T02:54:49.746Z,100874.94
2023-02-02T02:58:05.424Z,100897.72
2023-02-02T03:01:14.286Z,100894.28
2023-02-02T03:04:24.267Z,100898.91
2023-02-02T03:07:30.678Z,100901.31
2023-02-02T03:10:34.877Z,100902.22
2023-02-02T03:13:37.874Z,100904.81
2023-02-02T03:16:40.459Z,100912.72
2023-02-02T03:19:44.399Z,100922.25
2023-02-02T03:22:46.997Z,100928.16
2023-02-02T03:25:50.088Z,100925.53
2023-02-02T03:28:54.616Z,100931.13
2023-02-02T03:31:57.311Z,100923.81
2023-02-02T03:35:01.251Z,100950.13
2023-02-02T03:38:04.243Z,100944.63
2023-02-02T03:41:06.950Z,100950.59
2023-02-02T03:44:09.510Z,100949.19
2023-02-02T03:47:12.096Z,100954.50
2023-02-02T03:50:16.396Z,100969.13
2023-02-02T03:53:19.032Z,100972.00
2023-02-02T03:56:21.635Z,100972.69
2023-02-02T03:59:24.275Z,100976.53
2023-02-02T04:02:26.940Z,100976.41
2023-02-02T04:05:30.895Z,100976.38
2023-02-02T04:08:34.085Z,100993.00
2023-02-02T04:11:36.744Z,100993.59
2023-02-02T04:14:39.398Z,100992.75
2023-02-02T04:17:41.993Z,100990.19
2023-02-02T04:20:45.914Z,100998.97
2023-02-02T04:23:49.668Z,101000.72
2023-02-02T04:26:52.501Z,101004.25
2023-02-02T04:29:55.081Z,101004.34
2023-02-02T04:32:57.661Z,101024.34
2023-02-02T04:36:01.755Z,101020.69
2023-02-02T04:39:04.713Z,101032.00
2023-02-02T04:42:07.383Z,101036.19
2023-02-02T04:45:10.684Z,101042.75
2023-02-02T04:48:13.275Z,101049.00
2023-02-02T04:51:18.669Z,101052.41
2023-02-02T04:54:21.304Z,101047.19
2023-02-02T04:57:23.926Z,101050.94
2023-02-02T05:00:26.577Z,101055.06
2023-02-02T05:03:29.175Z,101061.19
2023-02-02T05:06:33.121Z,101063.56
2023-02-02T05:09:35.707Z,101062.75
2023-02-02T05:12:38.287Z,101067.22
2023-02-02T05:15:40.856Z,101061.19
2023-02-02T05:18:43.674Z,101073.97
2023-02-02T05:21:50.954Z,101068.94
2023-02-02T05:24:53.976Z,101063.88
2023-02-02T05:27:56.555Z,101069.75
2023-02-02T05:30:59.162Z,101074.56
2023-02-02T05:34:01.916Z,101077.91
2023-02-02T05:37:05.829Z,101070.09
2023-02-02T05:40:09.704Z,101085.25
2023-02-02T05:43:12.297Z,101087.94
2023-02-02T05:46:14.985Z,101084.47
2023-02-02T05:49:17.708Z,101091.66
2023-02-02T05:52:24.801Z,101092.25
2023-02-02T05:55:27.448Z,101103.66
2023-02-02T05:58:30.121Z,101106.41
2023-02-02T06:01:32.699Z,101103.78
2023-02-02T06:04:35.314Z,101107.25
2023-02-02T06:07:39.273Z,101104.34
2023-02-02T06:10:42.431Z,101114.31
2023-02-02T06:13:46.096Z,101126.53
2023-02-02T06:16:48.859Z,101124.59
2023-02-02T06:19:51.436Z,101132.56
2023-02-02T06:22:55.608Z,101142.16
2023-02-02T06:25:58.341Z,101135.22
2023-02-02T06:29:00.906Z,101148.38
2023-02-02T06:32:03.580Z,101150.91
2023-02-02T06:35:07.279Z,101151.72
2023-02-02T06:38:11.869Z,101156.88
2023-02-02T06:41:14.460Z,101154.19
2023-02-02T06:44:19.135Z,101165.66
2023-02-02T06:47:21.737Z,101155.19
2023-02-02T06:50:24.362Z,101169.19
2023-02-02T06:53:28.364Z,101176.84
2023-02-02T06:56:30.968Z,101181.47
2023-02-02T06:59:33.550Z,101187.53
2023-02-02T07:02:36.604Z,101187.53
2023-02-02T07:05:39.323Z,101187.56
2023-02-02T07:08:44.364Z,101197.88
2023-02-02T07:11:46.966Z,101193.81
2023-02-02T07:14:49.777Z,101200.69
2023-02-02T07:17:52.349Z,101212.16
2023-02-02T07:20:54.965Z,101214.03
2023-02-02T07:23:58.889Z,101213.91
2023-02-02T07:27:01.504Z,101225.22
2023-02-02T07:30:04.890Z,101231.28
2023-02-02T07:33:07.566Z,101232.00
2023-02-02T07:36:10.790Z,101249.56
2023-02-02T07:39:14.937Z,101246.06
2023-02-02T07:42:17.524Z,101243.56
2023-02-02T07:45:27.520Z,101243.53
2023-02-02T07:48:30.828Z,101249.53
2023-02-02T07:51:33.434Z,101270.69
2023-02-02T07:54:37.397Z,101269.94
2023-02-02T07:57:39.984Z,101283.84
2023-02-02T08:00:42.633Z,101285.59
2023-02-02T08:03:45.304Z,101284.66
2023-02-02T08:06:48.263Z,101300.94
2023-02-02T08:09:52.715Z,101292.91
2023-02-02T08:12:55.381Z,101294.75
2023-02-02T08:15:58.856Z,101306.03
2023-02-02T08:19:01.898Z,101300.53
2023-02-02T08:22:04.484Z,101306.25
2023-02-02T08:25:09.818Z,101315.69
2023-02-02T08:28:12.365Z,101321.75
2023-02-02T08:31:17.084Z,101333.13
2023-02-02T08:34:19.743Z,101336.09
2023-02-02T08:37:22.334Z,101334.16
2023-02-02T08:40:26.399Z,101335.56
2023-02-02T08:43:29.977Z,101346.16
2023-02-02T08:46:32.615Z,101341.56
2023-02-02T08:49:35.231Z,101346.78
2023-02-02T08:52:37.808Z,101363.31
2023-02-02T08:55:41.731Z,101353.47
2023-02-02T08:58:46.472Z,101349.78
2023-02-02T09:01:49.133Z,101360.16
2023-02-02T09:04:51.756Z,101360.84
2023-02-02T09:07:54.315Z,101366.28
2023-02-02T09:11:03.271Z,101374.13
2023-02-02T09:14:07.318Z,101377.22
2023-02-02T09:17:09.933Z,101381.47
2023-02-02T09:20:13.688Z,101387.47
2023-02-02T09:23:16.262Z,101391.88
2023-02-02T09:26:21.861Z,101391.03
2023-02-02T09:29:24.507Z,101398.63
2023-02-02T09:32:27.086Z,101400.22
2023-02-02T09:35:29.674Z,101413.19
2023-02-02T09:38:32.239Z,101423.81
2023-02-02T09:42:13.250Z,101428.16
2023-02-02T09:45:27.035Z,101443.00
2023-02-02T09:48:39.859Z,101448.44
2023-02-02T09:51:46.032Z,101451.09
2023-02-02T09:54:51.585Z,101450.06
2023-02-02T09:57:58.031Z,101454.59
2023-02-02T10:01:07.730Z,101459.41
2023-02-02T10:04:18.776Z,101456.56
2023-02-02T10:07:27.486Z,101465.13
2023-02-02T10:10:35.354Z,101465.28
2023-02-02T10:13:43.469Z,101468.31
2023-02-02T10:16:49.341Z,101472.03
2023-02-02T10:19:56.611Z,101472.81
2023-02-02T10:23:05.170Z,101475.34
2023-02-02T10:26:17.534Z,101482.13
2023-02-02T10:29:48.008Z,101483.75
2023-02-02T10:33:03.726Z,101488.28
2023-02-02T10:36:17.918Z,101500.38
2023-02-02T10:39:31.806Z,101505.94
2023-02-02T10:43:06.666Z,101518.59
2023-02-02T10:46:16.017Z,101532.19
2023-02-02T10:49:27.864Z,101543.34
2023-02-02T10:52:33.657Z,101543.31
2023-02-02T10:55:42.285Z,101543.56
2023-02-02T10:58:51.579Z,101542.06
2023-02-02T11:01:54.293Z,101544.97
2023-02-02T11:05:15.629Z,101556.47
2023-02-02T11:08:20.193Z,101554.41
2023-02-02T11:11:27.071Z,101561.69
2023-02-02T11:14:45.375Z,101560.28
2023-02-02T11:17:48.580Z,101573.63
2023-02-02T11:20:52.545Z,101569.41
2023-02-02T11:23:57.755Z,101563.72
2023-02-02T11:27:02.839Z,101564.66
2023-02-02T11:30:20.188Z,101567.78
2023-02-02T11:33:29.373Z,101565.75
2023-02-02T11:36:33.304Z,101562.75
2023-02-02T11:39:35.878Z,101560.84
2023-02-02T11:42:38.560Z,101563.28
2023-02-02T11:45:43.713Z,101564.88
2023-02-02T11:48:51.988Z,101567.63
2023-02-02T11:52:00.736Z,101569.25
2023-02-02T11:55:15.621Z,101566.00
2023-02-02T11:58:27.297Z,101570.16
2023-02-02T12:01:32.084Z,101569.34
2023-02-02T12:04:34.930Z,101573.44
2023-02-02T12:07:39.167Z,101570.47
2023-02-02T12:10:47.457Z,101565.22
2023-02-02T12:14:06.863Z,101568.66
2023-02-02T12:17:22.653Z,101577.47
2023-02-02T12:20:37.528Z,101574.50
2023-02-02T12:23:54.099Z,101594.56
2023-02-02T12:27:09.148Z,101585.38
2023-02-02T12:30:28.782Z,101598.38
2023-02-02T12:33:39.635Z,101598.94
2023-02-02T12:36:50.837Z,101593.47
2023-02-02T12:40:05.838Z,101600.03
2023-02-02T12:43:22.152Z,101599.84
2023-02-02T12:46:41.199Z,101593.78
2023-02-02T12:50:01.982Z,101585.78
2023-02-02T12:53:19.560Z,101599.25
2023-02-02T12:56:33.774Z,101601.91
2023-02-02T13:00:01.616Z,101606.84
2023-02-02T13:03:19.070Z,101599.22
2023-02-02T13:06:42.209Z,101601.53
2023-02-02T13:09:50.561Z,101605.25
2023-02-02T13:12:59.804Z,101603.34
2023-02-02T13:16:08.573Z,101615.56
2023-02-02T13:19:17.189Z,101614.19
2023-02-02T13:22:25.301Z,101611.69
2023-02-02T13:25:31.507Z,101610.19
2023-02-02T13:28:42.347Z,101618.47
2023-02-02T13:31:49.275Z,101615.88
2023-02-02T13:34:56.717Z,101620.63
2023-02-02T13:38:06.935Z,101628.97
2023-02-02T13:41:13.567Z,101619.06
2023-02-02T13:44:25.789Z,101630.22
2023-02-02T13:47:37.428Z,101629.22
2023-02-02T13:50:53.917Z,101632.41
2023-02-02T13:54:19.439Z,101630.53
2023-02-02T13:57:52.918Z,101636.91
2023-02-02T14:01:01.760Z,101645.09
2023-02-02T14:04:05.522Z,101642.22
2023-02-02T14:10:24.686Z,101631.69
2023-02-02T14:13:51.305Z,101638.56
2023-02-02T14:16:56.647Z,101648.34
2023-02-02T14:20:01.125Z,101642.94
2023-02-02T14:23:03.847Z,101643.63
2023-02-02T14:26:09.203Z,101647.34
2023-02-02T14:29:39.435Z,101647.59
2023-02-02T14:32:44.054Z,101640.94
2023-02-02T14:36:03.926Z,101655.31
2023-02-02T14:39:19.071Z,101661.75
2023-02-02T14:42:53.999Z,101655.66
2023-02-02T14:46:24.847Z,101660.13
2023-02-02T14:49:35.673Z,101673.53
2023-02-02T14:52:38.421Z,101667.72
2023-02-02T14:55:53.898Z,101677.47
2023-02-02T14:59:01.192Z,101684.69
2023-02-02T15:02:15.369Z,101694.63
2023-02-02T15:05:46.445Z,101708.31
2023-02-02T15:09:27.746Z,101709.97
2023-02-02T15:12:39.434Z,101716.78
2023-02-02T15:15:44.027Z,101716.03
2023-02-02T15:18:50.173Z,101716.91
2023-02-02T15:21:58.304Z,101724.09
2023-02-02T15:25:07.875Z,101722.19
2023-02-02T15:28:19.053Z,101728.63
2023-02-02T15:31:30.359Z,101729.97
2023-02-02T15:34:39.880Z,101736.75
2023-02-02T15:37:48.236Z,101743.69
2023-02-02T15:40:51.436Z,101743.78
2023-02-02T15:43:54.326Z,101751.47
2023-02-02T15:46:58.496Z,101757.91
2023-02-02T15:50:01.298Z,101757.78
2023-02-02T15:53:05.764Z,101768.69
2023-02-02T15:56:20.512Z,101773.84
2023-02-02T15:59:25.738Z,101778.28
2023-02-02T16:02:37.286Z,101787.19
2023-02-02T16:05:47.602Z,101792.72
2023-02-02T16:08:51.855Z,101793.66
2023-02-02T16:11:54.764Z,101808.66
2023-02-02T16:14:57.591Z,101806.25
2023-02-02T16:18:01.416Z,101804.50
2023-02-02T16:21:10.756Z,101809.06
2023-02-02T16:24:17.985Z,101815.34
2023-02-02T16:27:23.391Z,101817.16
2023-02-02T16:30:30.236Z,101831.25
2023-02-02T16:33:38.909Z,101827.00
2023-02-02T16:36:41.523Z,101832.28
2023-02-02T16:39:45.688Z,101829.72
2023-02-02T16:42:48.389Z,101828.94
2023-02-02T16:45:53.365Z,101824.63
2023-02-02T16:49:00.390Z,101829.84
2023-02-02T16:52:15.970Z,101821.13
2023-02-02T16:55:21.832Z,101821.16
2023-02-02T16:58:26.443Z,101816.03
2023-02-02T17:01:36.417Z,101819.63
2023-02-02T17:04:39.184Z,101817.09
2023-02-02T17:07:48.999Z,101825.88
2023-02-02T17:11:05.668Z,101832.09
2023-02-02T17:14:20.183Z,101837.47
2023-02-02T17:17:22.813Z,101837.44
2023-02-02T17:20:26.050Z,101827.06
2023-02-02T17:23:30.319Z,101834.19
2023-02-02T17:26:34.396Z,101832.38
2023-02-02T17:29:37.102Z,101839.44
2023-02-02T17:32:39.789Z,101837.75
2023-02-02T17:35:53.840Z,101835.97
2023-02-02T17:38:57.854Z,101832.47
2023-02-02T17:42:01.880Z,101840.44
2023-02-02T17:45:04.877Z,101840.44
2023-02-02T17:48:07.800Z,101837.81
2023-02-02T17:51:15.972Z,101833.44
2023-02-02T17:54:18.663Z,101831.72
2023-02-02T17:57:22.681Z,101832.56
2023-02-02T18:00:29.941Z,101818.50
2023-02-02T18:03:36.003Z,101818.47
2023-02-02T18:06:38.913Z,101823.69
2023-02-02T18:09:41.591Z,101821.03
2023-02-02T18:12:45.907Z,101823.63
2023-02-02T18:15:49.769Z,101827.06
2023-02-02T18:18:53.602Z,101831.41
2023-02-02T18:21:56.307Z,101820.88
2023-02-02T18:24:59.555Z,101830.53
2023-02-02T18:28:03.622Z,101822.59
2023-02-02T18:31:11.026Z,101823.53
2023-02-02T18:34:13.729Z,101828.75
2023-02-02T18:37:16.366Z,101826.06
2023-02-02T18:40:19.507Z,101812.78
2023-02-02T18:43:23.522Z,101810.34
2023-02-02T18:46:26.891Z,101818.06
2023-02-02T18:49:29.662Z,101816.25
2023-02-02T18:52:33.137Z,101812.84
2023-02-02T18:55:38.225Z,101808.41
2023-02-02T18:58:42.466Z,101803.91
2023-02-02T19:01:45.267Z,101801.19
2023-02-02T19:05:01.942Z,101797.72
2023-02-02T19:08:05.821Z,101813.13
2023-02-02T19:11:15.288Z,101808.38
2023-02-02T19:14:24.324Z,101789.88
2023-02-02T19:17:28.003Z,101780.09
2023-02-02T19:20:31.722Z,101774.75
2023-02-02T19:23:37.329Z,101761.66
2023-02-02T19:26:45.569Z,101758.09
2023-02-02T19:29:51.974Z,101756.41
2023-02-02T19:32:54.682Z,101756.38
2023-02-02T19:35:57.348Z,101745.19
2023-02-02T19:39:13.589Z,101746.81
2023-02-02T19:42:16.362Z,101749.28
2023-02-02T19:45:24.902Z,101748.38
2023-02-02T19:48:32.059Z,101743.19
2023-02-02T19:51:42.780Z,101737.91
2023-02-02T19:54:47.846Z,101740.59
2023-02-02T19:57:51.557Z,101739.59
2023-02-02T20:00:57.918Z,101737.03
2023-02-02T20:04:03.950Z,101736.63
2023-02-02T20:07:13.411Z,101726.44
2023-02-02T20:10:22.973Z,101727.16
2023-02-02T20:13:34.935Z,101723.66
2023-02-02T20:16:42.981Z,101720.09
2023-02-02T20:19:47.056Z,101720.19
2023-02-02T20:22:49.707Z,101724.69
2023-02-02T20:25:52.411Z,101722.97
2023-02-02T20:28:56.651Z,101711.69
2023-02-02T20:32:00.735Z,101708.19
2023-02-02T20:35:20.060Z,101708.06
2023-02-02T20:38:25.629Z,101704.72
2023-02-02T20:41:28.370Z,101705.72
2023-02-02T20:44:32.504Z,101709.06
2023-02-02T20:47:36.534Z,101704.69
2023-02-02T20:50:39.484Z,101705.72
2023-02-02T20:53:42.197Z,101702.19
2023-02-02T20:56:44.883Z,101700.22
2023-02-02T20:59:47.558Z,101700.19
2023-02-02T21:02:52.060Z,101683.53
2023-02-02T21:05:54.764Z,101672.88
2023-02-02T21:08:57.427Z,101678.28
2023-02-02T21:12:00.111Z,101674.50
2023-02-02T21:15:03.910Z,101663.03
2023-02-02T21:18:08.027Z,101657.09
2023-02-02T21:21:10.708Z,101665.91
2023-02-02T21:24:13.393Z,101651.16
2023-02-02T21:27:16.123Z,101647.63
2023-02-02T21:30:19.142Z,101647.44
2023-02-02T21:33:23.207Z,101651.91
2023-02-02T21:36:34.708Z,101640.38
2023-02-02T21:39:38.691Z,101649.94
2023-02-02T21:42:48.324Z,101646.56
2023-02-02T21:45:52.907Z,101652.06
2023-02-02T21:48:56.981Z,101639.50
2023-02-02T21:52:03.474Z,101633.47
2023-02-02T21:55:29.500Z,101621.25
2023-02-02T21:58:35.187Z,101616.84
2023-02-02T22:01:40.148Z,101620.34
2023-02-02T22:04:44.261Z,101609.00
2023-02-02T22:07:49.558Z,101609.16
2023-02-02T22:10:52.318Z,101592.72
2023-02-02T22:13:55.522Z,101589.91
2023-02-02T22:16:59.803Z,101578.50
2023-02-02T22:20:18.661Z,101568.88
2023-02-02T22:23:23.783Z,101561.78
2023-02-02T22:26:34.088Z,101568.72
2023-02-02T22:29:36.683Z,101558.16
2023-02-02T22:32:39.303Z,101561.97
2023-02-02T22:35:44.036Z,101527.75
2023-02-02T22:38:46.618Z,101518.97
2023-02-02T22:41:49.199Z,101521.88
2023-02-02T22:44:51.779Z,101510.06
2023-02-02T22:47:54.875Z,101504.84
2023-02-02T22:50:58.808Z,101510.22
2023-02-02T22:54:01.392Z,101495.00
2023-02-02T22:57:04.038Z,101492.25
2023-02-02T23:00:10.451Z,101483.84
2023-02-02T23:03:13.086Z,101472.09
2023-02-02T23:06:17.056Z,101475.00
2023-02-02T23:09:19.639Z,101465.59
2023-02-02T23:12:22.304Z,101454.19
2023-02-02T23:15:25.258Z,101465.53
2023-02-02T23:18:27.862Z,101459.16
2023-02-02T23:21:31.844Z,101445.91
2023-02-02T23:24:34.442Z,101436.03
2023-02-02T23:27:37.042Z,101438.16
2023-02-02T23:30:39.648Z,101423.63
2023-02-02T23:33:42.249Z,101406.66
2023-02-02T23:36:46.170Z,101406.44
2023-02-02T23:39:48.760Z,101389.03
2023-02-02T23:42:51.391Z,101390.78
2023-02-02T23:45:54.031Z,101387.09
2023-02-02T23:48:57.226Z,101391.41
2023-02-02T23:52:01.386Z,101380.31
2023-02-02T23:55:05.046Z,101368.72
2023-02-02T23:58:07.814Z,101376.03
